Time;durP1;ratioP1;P1;durP2;ratioP2;P2;SDS_P1;SDS_P2;PMS_P1;PMS_P2;Temp;Humidity;BMP_temperature;BMP_pressure;BME280_temperature;BME280_humidity;BME280_pressure;Samples;Min_cycle;Max_cycle;Signal;HPM_P1;HPM_P2
2022/10/15 00:00:33;;;;;;;9.90;5.07;;;20.80;64.90;;;;;;6102400;29;20095;-82
2022/10/15 00:03:38;;;;;;;12.52;4.45;;;20.80;65.10;;;;;;6102580;29;20418;-82
2022/10/15 00:06:40;;;;;;;7.70;4.45;;;20.70;65.40;;;;;;6101904;29;20032;-82
2022/10/15 00:09:40;;;;;;;12.55;4.22;;;20.60;65.50;;;;;;6102388;29;20048;-82
2022/10/15 00:12:42;;;;;;;10.13;4.18;;;20.60;65.70;;;;;;6102640;29;20112;-82
2022/10/15 00:15:43;;;;;;;9.75;3.92;;;20.60;65.80;;;;;;6101775;29;20056;-82
2022/10/15 00:18:45;;;;;;;7.38;4.20;;;20.60;66.00;;;;;;6098221;29;20051;-82
2022/10/15 00:21:46;;;;;;;10.43;4.78;;;20.60;66.10;;;;;;6101894;29;20050;-82
2022/10/15 00:24:47;;;;;;;10.45;3.53;;;20.50;66.10;;;;;;6118579;29;20127;-82
2022/10/15 00:27:48;;;;;;;13.88;4.25;;;20.50;66.30;;;;;;6102330;29;20354;-83
2022/10/15 00:30:49;;;;;;;9.50;4.72;;;20.40;66.40;;;;;;6102537;29;20083;-83
2022/10/15 00:33:52;;;;;;;10.30;3.90;;;20.40;66.60;;;;;;6100927;29;20115;-81
2022/10/15 00:36:53;;;;;;;6.75;4.18;;;20.40;66.80;;;;;;6095687;29;20069;-82
2022/10/15 00:39:54;;;;;;;8.40;3.88;;;20.30;67.20;;;;;;6101015;29;20128;-82
2022/10/15 00:42:55;;;;;;;10.13;4.53;;;20.30;66.90;;;;;;6102136;29;20068;-82
2022/10/15 00:45:56;;;;;;;10.18;4.32;;;20.30;66.90;;;;;;6084865;29;20056;-82
2022/10/15 00:49:04;;;;;;;13.20;4.65;;;20.30;67.00;;;;;;6100821;29;20044;-83
2022/10/15 00:52:10;;;;;;;8.90;4.20;;;20.20;66.90;;;;;;6099642;29;20139;-84
2022/10/15 00:55:17;;;;;;;8.50;3.90;;;20.30;66.90;;;;;;6101325;29;20370;-81
2022/10/15 00:58:27;;;;;;;8.88;4.32;;;20.30;67.00;;;;;;6102405;29;20043;-83
2022/10/15 01:01:29;;;;;;;7.45;3.80;;;20.20;67.00;;;;;;6097161;29;20056;-83
2022/10/15 01:04:31;;;;;;;10.07;4.10;;;20.20;67.10;;;;;;6101720;29;20032;-84
2022/10/15 01:07:32;;;;;;;7.47;4.05;;;20.10;67.30;;;;;;6104885;29;20071;-83
2022/10/15 01:10:42;;;;;;;6.72;4.20;;;20.10;67.40;;;;;;6099194;29;20138;-82
2022/10/15 01:13:52;;;;;;;11.75;4.55;;;20.10;67.50;;;;;;6098791;29;20036;-82
2022/10/15 01:17:28;;;;;;;7.95;3.63;;;20.00;67.50;;;;;;6105418;29;20135;-82
2022/10/15 01:20:48;;;;;;;7.18;4.35;;;20.00;67.60;;;;;;6096431;29;20126;-82
2022/10/15 01:23:49;;;;;;;12.80;3.92;;;20.00;67.50;;;;;;6103888;29;20118;-82
2022/10/15 01:27:16;;;;;;;7.47;2.90;;;20.00;67.40;;;;;;6098135;29;20055;-82
2022/10/15 01:30:29;;;;;;;5.50;3.38;;;20.00;67.30;;;;;;6114578;29;20067;-82
2022/10/15 01:33:36;;;;;;;3.80;2.65;;;19.90;67.20;;;;;;6101414;29;20040;-81
2022/10/15 01:37:15;;;;;;;6.03;3.47;;;19.80;67.30;;;;;;6100571;29;20044;-81
2022/10/15 01:40:28;;;;;;;5.93;2.70;;;19.80;67.30;;;;;;6017066;29;20436;-81
2022/10/15 01:43:59;;;;;;;19.25;3.33;;;19.70;67.20;;;;;;6016237;29;20729;-82
2022/10/15 01:47:35;;;;;;;7.40;3.30;;;19.70;67.30;;;;;;5897206;30;20119;-82
2022/10/15 01:50:41;;;;;;;7.75;3.90;;;19.70;67.20;;;;;;5909382;30;20526;-83
2022/10/15 01:53:44;;;;;;;7.40;4.50;;;19.70;67.20;;;;;;5910767;30;20040;-81
2022/10/15 01:56:48;;;;;;;8.43;4.03;;;19.70;67.40;;;;;;5888476;30;20052;-82
2022/10/15 01:59:53;;;;;;;18.38;4.05;;;19.70;67.40;;;;;;5896937;30;20044;-81
2022/10/15 02:03:01;;;;;;;10.63;3.55;;;19.70;67.40;;;;;;5895667;30;20525;-82
2022/10/15 02:06:08;;;;;;;10.02;3.83;;;19.70;67.50;;;;;;5882788;30;20052;-82
2022/10/15 02:09:21;;;;;;;10.63;3.90;;;19.70;67.60;;;;;;5901235;30;20378;-81
2022/10/15 02:12:57;;;;;;;10.10;3.85;;;19.70;67.60;;;;;;5911951;30;20499;-82
2022/10/15 02:16:42;;;;;;;17.55;4.85;;;19.60;67.80;;;;;;5925295;29;20054;-82
2022/10/15 02:19:51;;;;;;;8.70;3.55;;;19.50;68.10;;;;;;5966187;29;20057;-81
2022/10/15 02:23:03;;;;;;;10.98;4.07;;;19.50;68.40;;;;;;5986947;29;20130;-81
2022/10/15 02:26:07;;;;;;;12.35;3.80;;;19.40;68.80;;;;;;6099993;29;20079;-81
2022/10/15 02:29:18;;;;;;;7.93;3.97;;;19.40;69.00;;;;;;6099169;29;20432;-81
2022/10/15 02:32:20;;;;;;;9.52;4.20;;;19.40;69.10;;;;;;6081645;29;20052;-81
2022/10/15 02:35:23;;;;;;;6.78;3.88;;;19.40;69.10;;;;;;6082283;29;20033;-82
2022/10/15 02:38:27;;;;;;;6.93;3.55;;;19.40;69.10;;;;;;6098701;29;20484;-81
2022/10/15 02:41:28;;;;;;;8.40;3.83;;;19.40;69.20;;;;;;6104907;29;20028;-82
2022/10/15 02:44:30;;;;;;;7.15;4.03;;;19.40;69.20;;;;;;6102710;29;20111;-81
2022/10/15 02:47:31;;;;;;;16.50;3.83;;;19.40;69.20;;;;;;6102719;29;20032;-83
2022/10/15 02:50:36;;;;;;;15.48;4.32;;;19.40;69.20;;;;;;6100296;29;20067;-82
2022/10/15 02:53:37;;;;;;;6.47;3.58;;;19.40;69.20;;;;;;6103903;29;20044;-81
2022/10/15 02:56:38;;;;;;;9.80;4.22;;;19.40;69.20;;;;;;6102556;29;20047;-83
2022/10/15 02:59:40;;;;;;;6.93;3.78;;;19.30;69.00;;;;;;6097104;29;20047;-82
2022/10/15 03:02:43;;;;;;;7.05;3.97;;;19.30;69.00;;;;;;6101780;29;20485;-82
2022/10/15 03:05:44;;;;;;;12.35;3.28;;;19.30;69.20;;;;;;6083253;29;20040;-83
2022/10/15 03:08:46;;;;;;;6.80;3.53;;;19.20;69.20;;;;;;6098013;29;20043;-82
2022/10/15 03:11:47;;;;;;;6.68;3.28;;;19.20;69.30;;;;;;6085373;29;20044;-83
2022/10/15 03:14:48;;;;;;;5.43;3.42;;;19.10;69.20;;;;;;6085771;29;20032;-83
2022/10/15 03:17:49;;;;;;;6.07;3.00;;;19.10;69.10;;;;;;6097146;29;20044;-83
2022/10/15 03:20:56;;;;;;;10.15;2.92;;;19.10;69.10;;;;;;6116064;29;20116;-83
2022/10/15 03:23:59;;;;;;;15.32;3.15;;;19.10;69.10;;;;;;6098559;29;20036;-83
2022/10/15 03:27:01;;;;;;;6.30;3.17;;;19.10;69.00;;;;;;6115408;29;20036;-82
2022/10/15 03:30:04;;;;;;;6.03;3.20;;;19.10;68.90;;;;;;6094618;29;20044;-83
2022/10/15 03:33:07;;;;;;;4.75;3.30;;;19.10;70.00;;;;;;6084482;29;20036;-83
2022/10/15 03:36:09;;;;;;;6.78;3.60;;;19.10;69.10;;;;;;6100966;29;20047;-82
2022/10/15 03:39:11;;;;;;;8.07;3.70;;;19.10;69.10;;;;;;6104475;29;20066;-83
2022/10/15 03:42:13;;;;;;;12.23;3.50;;;19.10;69.20;;;;;;6102334;29;20028;-83
2022/10/15 03:45:19;;;;;;;9.57;3.42;;;19.00;69.20;;;;;;6100550;29;20025;-83
2022/10/15 03:48:25;;;;;;;11.85;3.28;;;19.00;69.30;;;;;;6080675;29;20100;-82
2022/10/15 03:51:26;;;;;;;16.90;3.72;;;18.90;69.20;;;;;;6105929;29;20039;-83
2022/10/15 03:54:34;;;;;;;8.88;4.13;;;19.00;69.40;;;;;;6095577;29;20373;-83
2022/10/15 03:57:37;;;;;;;7.93;3.53;;;19.00;69.40;;;;;;6089312;29;20088;-81
2022/10/15 04:00:44;;;;;;;10.27;3.72;;;18.90;69.40;;;;;;6098695;29;20040;-81
2022/10/15 04:03:46;;;;;;;9.48;4.00;;;19.00;69.50;;;;;;6096719;29;20469;-81
2022/10/15 04:06:50;;;;;;;8.25;3.95;;;18.90;69.40;;;;;;6093200;29;20056;-81
2022/10/15 04:09:52;;;;;;;8.60;3.58;;;18.90;69.40;;;;;;6084577;29;20613;-81
2022/10/15 04:13:05;;;;;;;12.07;3.55;;;18.90;69.40;;;;;;6099073;29;20055;-82
2022/10/15 04:16:08;;;;;;;7.40;3.28;;;18.90;69.40;;;;;;6098279;29;20509;-81
2022/10/15 04:19:09;;;;;;;5.00;3.17;;;18.80;69.30;;;;;;6087821;29;20048;-81
2022/10/15 04:22:11;;;;;;;6.45;3.28;;;18.80;69.20;;;;;;6097246;29;20034;-81
2022/10/15 04:25:19;;;;;;;8.25;3.50;;;18.80;69.30;;;;;;6097082;29;20028;-83
2022/10/15 04:28:20;;;;;;;9.05;2.95;;;18.70;69.30;;;;;;6103559;29;20115;-83
2022/10/15 04:31:21;;;;;;;7.22;3.17;;;18.70;69.30;;;;;;6113105;29;20074;-81
2022/10/15 04:34:23;;;;;;;6.55;3.80;;;18.70;69.20;;;;;;6097871;29;20055;-83
2022/10/15 04:37:25;;;;;;;9.60;3.38;;;18.70;69.20;;;;;;6108949;29;20140;-82
2022/10/15 04:40:28;;;;;;;8.52;3.28;;;18.60;69.20;;;;;;6099906;29;20044;-82
2022/10/15 04:43:30;;;;;;;8.23;3.00;;;18.60;69.10;;;;;;6100449;29;20346;-82
2022/10/15 04:46:37;;;;;;;7.35;3.08;;;18.50;69.10;;;;;;6101004;29;20059;-82
2022/10/15 04:49:59;;;;;;;5.40;3.13;;;18.50;69.20;;;;;;6000630;29;20145;-81
2022/10/15 04:53:18;;;;;;;5.28;2.70;;;18.50;69.20;;;;;;6009803;29;20463;-81
2022/10/15 04:56:24;;;;;;;10.88;3.33;;;18.50;69.20;;;;;;6009003;29;20042;-81
2022/10/15 04:59:25;;;;;;;6.93;2.50;;;18.40;69.30;;;;;;6010151;29;20046;-82
2022/10/15 05:02:51;;;;;;;4.75;2.85;;;18.40;69.40;;;;;;6002450;29;20053;-81
2022/10/15 05:06:07;;;;;;;5.50;2.40;;;18.40;69.40;;;;;;5992046;29;20484;-83
2022/10/15 05:09:10;;;;;;;4.50;2.83;;;18.40;69.50;;;;;;6007076;29;20390;-83
2022/10/15 05:12:12;;;;;;;6.05;3.05;;;18.30;69.50;;;;;;6008037;29;20095;-82
2022/10/15 05:15:14;;;;;;;7.75;2.97;;;18.30;69.60;;;;;;6003534;29;20105;-82
2022/10/15 05:18:15;;;;;;;7.88;2.72;;;18.30;69.60;;;;;;5991135;29;20133;-82
2022/10/15 05:21:23;;;;;;;4.60;2.55;;;18.30;69.60;;;;;;6005830;29;20143;-82
2022/10/15 05:24:28;;;;;;;5.20;2.90;;;18.30;69.60;;;;;;6006326;29;20046;-82
2022/10/15 05:27:38;;;;;;;9.27;2.90;;;18.30;69.60;;;;;;6053487;29;20047;-82
2022/10/15 05:30:40;;;;;;;15.55;2.90;;;18.30;69.60;;;;;;6116511;29;20048;-82
2022/10/15 05:33:41;;;;;;;6.45;2.80;;;18.20;69.50;;;;;;6096450;29;20110;-83
2022/10/15 05:36:43;;;;;;;17.63;2.97;;;18.30;69.60;;;;;;6099536;29;20036;-83
2022/10/15 05:39:44;;;;;;;7.18;3.40;;;18.30;69.60;;;;;;6117239;29;20052;-82
2022/10/15 05:42:51;;;;;;;8.73;3.05;;;18.30;69.50;;;;;;6099975;29;20071;-82
2022/10/15 05:45:55;;;;;;;14.88;3.45;;;18.30;69.50;;;;;;6077986;29;20059;-82
2022/10/15 05:48:57;;;;;;;9.68;3.67;;;18.30;69.50;;;;;;6086290;29;20036;-82
2022/10/15 05:51:59;;;;;;;10.27;3.45;;;18.20;69.50;;;;;;6082633;29;20064;-82
2022/10/15 05:55:19;;;;;;;8.30;3.15;;;18.30;69.60;;;;;;6103013;29;20044;-82
2022/10/15 05:58:20;;;;;;;6.05;3.60;;;18.30;69.70;;;;;;6086644;29;20429;-82
2022/10/15 06:01:21;;;;;;;7.05;3.20;;;18.30;69.60;;;;;;6101854;29;20036;-82
2022/10/15 06:04:25;;;;;;;4.32;2.97;;;18.30;69.50;;;;;;6101865;29;20060;-83
2022/10/15 06:07:26;;;;;;;10.60;3.35;;;18.30;69.40;;;;;;6112630;29;20068;-83
2022/10/15 06:10:28;;;;;;;6.93;3.28;;;18.30;69.30;;;;;;6111856;29;20047;-82
2022/10/15 06:13:29;;;;;;;5.53;3.03;;;18.20;69.30;;;;;;6089868;29;20047;-82
2022/10/15 06:16:30;;;;;;;8.07;3.85;;;18.20;69.40;;;;;;6105991;29;20051;-82
2022/10/15 06:19:31;;;;;;;9.85;3.75;;;18.10;69.50;;;;;;6080389;29;20055;-82
2022/10/15 06:22:33;;;;;;;11.43;3.97;;;18.10;69.60;;;;;;6100768;29;20032;-83
2022/10/15 06:25:35;;;;;;;12.02;3.55;;;18.10;69.60;;;;;;6100236;29;20478;-83
2022/10/15 06:28:37;;;;;;;9.85;3.58;;;18.10;69.60;;;;;;6101664;29;20055;-82
2022/10/15 06:31:38;;;;;;;19.67;3.65;;;18.10;69.60;;;;;;6085924;29;21818;-82
2022/10/15 06:34:40;;;;;;;9.35;3.97;;;18.10;69.60;;;;;;6103100;29;20079;-82
2022/10/15 06:37:43;;;;;;;6.53;3.97;;;18.10;69.60;;;;;;6104408;29;20106;-82
2022/10/15 06:40:44;;;;;;;8.02;3.67;;;18.10;69.60;;;;;;6101236;29;20407;-82
2022/10/15 06:43:48;;;;;;;7.55;3.20;;;18.10;69.60;;;;;;6098979;29;20034;-82
2022/10/15 06:46:49;;;;;;;6.03;3.50;;;18.10;69.60;;;;;;6101044;29;20036;-83
2022/10/15 06:49:50;;;;;;;10.88;3.90;;;18.10;69.60;;;;;;6102453;29;20040;-82
2022/10/15 06:52:51;;;;;;;6.28;3.47;;;18.10;69.60;;;;;;6102913;29;20043;-82
2022/10/15 06:55:55;;;;;;;17.13;3.97;;;18.10;69.60;;;;;;6106127;29;20036;-82
2022/10/15 06:58:56;;;;;;;14.88;3.95;;;18.20;69.70;;;;;;6102444;29;20033;-82
2022/10/15 07:01:57;;;;;;;8.48;3.55;;;18.20;69.60;;;;;;6099905;29;20068;-83
2022/10/15 07:04:58;;;;;;;7.68;3.75;;;18.20;69.30;;;;;;6098140;29;20043;-83
2022/10/15 07:07:59;;;;;;;19.08;3.80;;;18.20;69.10;;;;;;6094769;29;20052;-82
2022/10/15 07:11:06;;;;;;;9.02;3.95;;;18.20;69.10;;;;;;6099461;29;20102;-82
2022/10/15 07:14:07;;;;;;;14.55;4.15;;;18.20;69.20;;;;;;6090975;29;20082;-82
2022/10/15 07:17:08;;;;;;;8.93;4.30;;;18.20;69.20;;;;;;6101334;29;20044;-83
2022/10/15 07:20:09;;;;;;;7.78;3.72;;;18.20;69.30;;;;;;6098259;29;20036;-82
2022/10/15 07:23:10;;;;;;;8.63;3.85;;;18.30;69.30;;;;;;6092261;29;20372;-82
2022/10/15 07:26:11;;;;;;;13.48;4.72;;;18.30;69.30;;;;;;6100395;29;20102;-82
2022/10/15 07:29:13;;;;;;;12.68;4.25;;;18.40;69.20;;;;;;6106667;29;20044;-82
2022/10/15 07:32:14;;;;;;;10.10;3.47;;;18.40;69.10;;;;;;6101359;29;20418;-83
2022/10/15 07:35:15;;;;;;;10.90;4.10;;;18.50;69.00;;;;;;6100127;29;20040;-83
2022/10/15 07:38:16;;;;;;;12.55;3.50;;;18.50;69.00;;;;;;6093341;29;20036;-82
2022/10/15 07:41:17;;;;;;;8.98;3.63;;;18.60;68.80;;;;;;6079116;29;20029;-82
2022/10/15 07:44:18;;;;;;;4.70;3.30;;;18.60;68.60;;;;;;6101854;29;20047;-83
2022/10/15 07:47:19;;;;;;;12.02;4.00;;;18.70;68.40;;;;;;6097396;29;20044;-83
2022/10/15 07:50:21;;;;;;;12.82;3.88;;;18.70;68.30;;;;;;6100942;29;20498;-83
2022/10/15 07:53:22;;;;;;;9.32;4.05;;;18.80;68.30;;;;;;6099225;29;20462;-81
2022/10/15 07:56:28;;;;;;;7.43;4.13;;;18.90;68.20;;;;;;6114660;29;20147;-81
2022/10/15 07:59:30;;;;;;;7.07;3.92;;;19.00;67.80;;;;;;6102616;29;20032;-82
2022/10/15 08:02:31;;;;;;;14.95;4.68;;;19.10;67.70;;;;;;6102624;29;20069;-82
2022/10/15 08:05:33;;;;;;;11.55;5.35;;;19.20;67.60;;;;;;6117203;29;20537;-82
2022/10/15 08:08:35;;;;;;;10.32;5.63;;;19.30;67.40;;;;;;6102047;29;20119;-82
2022/10/15 08:11:37;;;;;;;16.05;6.07;;;19.40;67.10;;;;;;6102371;29;20043;-82
2022/10/15 08:14:39;;;;;;;14.60;5.78;;;19.50;66.80;;;;;;6101066;29;20147;-82
2022/10/15 08:17:40;;;;;;;12.95;5.00;;;19.60;66.60;;;;;;6083322;29;20508;-82
2022/10/15 08:20:42;;;;;;;14.48;5.25;;;19.70;66.60;;;;;;6100150;29;20103;-82
2022/10/15 08:23:43;;;;;;;17.60;5.22;;;19.80;66.30;;;;;;6096634;29;20072;-82
2022/10/15 08:26:45;;;;;;;9.70;4.93;;;19.90;65.70;;;;;;6110555;29;20791;-82
2022/10/15 08:29:45;;;;;;;10.32;6.63;;;20.00;65.70;;;;;;6112176;29;20051;-82
2022/10/15 08:32:46;;;;;;;14.23;6.40;;;20.10;65.30;;;;;;6108782;29;20075;-82
2022/10/15 08:35:47;;;;;;;10.20;5.22;;;20.20;64.90;;;;;;6105338;29;20052;-82
2022/10/15 08:38:48;;;;;;;11.07;4.82;;;20.30;64.80;;;;;;6086284;29;20091;-84
2022/10/15 08:42:01;;;;;;;6.43;3.75;;;20.40;64.80;;;;;;6102174;29;20044;-83
2022/10/15 08:45:12;;;;;;;6.70;3.58;;;20.50;64.40;;;;;;6102487;29;20036;-82
2022/10/15 08:48:36;;;;;;;9.73;5.30;;;20.70;64.10;;;;;;6116090;29;20640;-83
2022/10/15 08:51:47;;;;;;;14.13;3.65;;;20.80;63.50;;;;;;6101027;29;20110;-82
2022/10/15 08:54:49;;;;;;;10.18;4.20;;;20.90;62.90;;;;;;6102810;29;20051;-81
2022/10/15 08:57:59;;;;;;;6.82;2.85;;;21.00;62.70;;;;;;6086058;29;20040;-83
2022/10/15 09:01:05;;;;;;;6.00;3.00;;;21.00;62.70;;;;;;6112431;29;20036;-82
2022/10/15 09:04:18;;;;;;;6.20;3.78;;;21.10;62.40;;;;;;6104705;29;20048;-82
2022/10/15 09:07:24;;;;;;;7.00;3.20;;;21.20;62.10;;;;;;6093645;29;20091;-81
2022/10/15 09:10:42;;;;;;;6.03;3.10;;;21.30;61.40;;;;;;6087626;29;20381;-83
2022/10/15 09:13:47;;;;;;;9.83;3.83;;;21.40;61.30;;;;;;6105159;29;20414;-82
2022/10/15 09:17:00;;;;;;;9.13;5.68;;;21.40;60.80;;;;;;6093456;29;20090;-84
2022/10/15 09:20:05;;;;;;;11.38;6.00;;;21.50;60.60;;;;;;6093791;29;20099;-83
2022/10/15 09:23:16;;;;;;;6.35;3.65;;;21.50;60.20;;;;;;6094737;29;20139;-83
2022/10/15 09:26:30;;;;;;;7.90;3.95;;;21.60;60.10;;;;;;6091832;29;20047;-83
2022/10/15 09:29:48;;;;;;;4.50;2.22;;;21.70;59.80;;;;;;6090984;29;20427;-82
2022/10/15 09:33:07;;;;;;;9.52;3.75;;;21.80;59.40;;;;;;6098071;29;20040;-82
2022/10/15 09:36:26;;;;;;;;;;;21.80;59.30;;;;;;6086545;29;20072;-83
2022/10/15 09:39:32;;;;;;;4.60;2.90;;;21.90;59.10;;;;;;6078996;29;19939;-82
2022/10/15 09:42:37;;;;;;;12.48;3.72;;;22.00;59.10;;;;;;6105082;29;20036;-82
2022/10/15 09:45:38;;;;;;;4.55;2.63;;;22.10;59.70;;;;;;6093060;29;20047;-82
2022/10/15 09:48:47;;;;;;;13.52;4.05;;;22.20;58.80;;;;;;6096472;29;20059;-82
2022/10/15 09:52:12;;;;;;;10.90;3.30;;;22.30;58.70;;;;;;6094637;29;20051;-81
2022/10/15 09:55:45;;;;;;;5.25;2.22;;;22.30;58.60;;;;;;6097513;29;20051;-82
2022/10/15 09:58:49;;;;;;;5.22;2.40;;;22.40;58.50;;;;;;6088224;29;20458;-83
2022/10/15 10:02:19;;;;;;;5.40;2.50;;;22.60;58.20;;;;;;6090004;29;20062;-83
2022/10/15 10:05:30;;;;;;;6.38;2.40;;;22.60;58.00;;;;;;6108128;29;20126;-83
2022/10/15 10:08:40;;;;;;;3.10;2.08;;;22.80;57.90;;;;;;6093577;29;20032;-83
2022/10/15 10:11:51;;;;;;;7.15;2.20;;;22.90;57.40;;;;;;6097027;29;20055;-83
2022/10/15 10:14:56;;;;;;;14.18;2.95;;;23.10;56.70;;;;;;6095262;29;20147;-83
2022/10/15 10:17:57;;;;;;;9.50;3.03;;;23.40;56.20;;;;;;6091310;29;20454;-82
2022/10/15 10:21:01;;;;;;;16.38;5.90;;;23.60;55.80;;;;;;6095191;29;20423;-82
2022/10/15 10:24:30;;;;;;;4.18;2.95;;;24.00;55.20;;;;;;6099617;29;20044;-83
2022/10/15 10:27:31;;;;;;;5.03;2.20;;;24.20;54.30;;;;;;6098437;29;20422;-82
2022/10/15 10:30:38;;;;;;;6.60;3.53;;;24.50;53.50;;;;;;6103633;29;20040;-83
2022/10/15 10:33:43;;;;;;;4.25;2.13;;;24.70;53.50;;;;;;6094131;29;20144;-84
2022/10/15 10:36:49;;;;;;;6.63;2.17;;;24.90;52.50;;;;;;6096896;29;20044;-85
2022/10/15 10:39:56;;;;;;;3.17;1.95;;;25.10;52.20;;;;;;6091249;29;20051;-83
2022/10/15 10:43:16;;;;;;;6.15;2.50;;;25.40;51.40;;;;;;6097336;29;20103;-83
2022/10/15 10:46:20;;;;;;;5.07;2.25;;;25.60;50.70;;;;;;6106293;29;20028;-83
2022/10/15 10:49:33;;;;;;;3.15;1.58;;;25.80;50.40;;;;;;6123853;29;20036;-85
2022/10/15 10:52:39;;;;;;;3.45;1.60;;;26.00;49.70;;;;;;6103512;29;20048;-85
2022/10/15 10:55:47;;;;;;;6.07;2.50;;;26.20;48.70;;;;;;6109916;29;20040;-84
2022/10/15 10:59:06;;;;;;;6.97;2.38;;;26.40;49.00;;;;;;6090660;29;20119;-85
2022/10/15 11:02:34;;;;;;;3.90;2.28;;;26.80;47.30;;;;;;6100790;29;20064;-84
2022/10/15 11:05:43;;;;;;;5.72;1.88;;;27.00;46.20;;;;;;6070071;29;20039;-85
2022/10/15 11:09:08;;;;;;;4.53;1.73;;;27.40;45.60;;;;;;6104845;29;20077;-83
2022/10/15 11:13:12;;;;;;;5.03;1.90;;;27.80;45.00;;;;;;6078138;29;20058;-85
2022/10/15 11:16:51;;;;;;;2.72;1.75;;;28.10;43.70;;;;;;6085632;29;20033;-84
2022/10/15 11:20:18;;;;;;;2.72;1.30;;;28.50;43.50;;;;;;6096959;29;20055;-84
2022/10/15 11:23:27;;;;;;;3.00;1.40;;;28.80;43.00;;;;;;6068263;29;20032;-84
2022/10/15 11:26:56;;;;;;;10.73;2.43;;;29.10;42.00;;;;;;6056871;29;20043;-84
2022/10/15 11:30:40;;;;;;;4.53;1.38;;;29.40;40.70;;;;;;6089145;29;20044;-83
2022/10/15 11:33:52;;;;;;;5.40;1.60;;;29.60;39.40;;;;;;6085583;29;20044;-84
2022/10/15 11:37:29;;;;;;;1.80;1.08;;;29.80;39.50;;;;;;6095827;29;20036;-83
2022/10/15 11:41:05;;;;;;;5.10;1.67;;;30.10;38.90;;;;;;6108180;29;20458;-82
2022/10/15 11:44:39;;;;;;;7.50;2.88;;;30.40;38.50;;;;;;6089892;29;20068;-83
2022/10/15 11:47:49;;;;;;;2.97;1.58;;;30.60;38.20;;;;;;6083934;29;20092;-83
2022/10/15 11:51:32;;;;;;;6.95;1.55;;;30.80;37.70;;;;;;6088896;29;20051;-85
2022/10/15 11:55:11;;;;;;;5.33;1.70;;;31.00;37.50;;;;;;6096759;29;20059;-84
2022/10/15 11:58:19;;;;;;;;;;;31.50;36.60;;;;;;6101594;29;20306;-83
2022/10/15 12:01:28;;;;;;;2.15;1.35;;;32.00;35.30;;;;;;6104362;29;19916;-84
2022/10/15 12:04:42;;;;;;;2.42;1.27;;;32.40;34.80;;;;;;6081329;29;20040;-83
2022/10/15 12:07:47;;;;;;;1.00;0.95;;;32.90;34.10;;;;;;6098771;29;20167;-83
2022/10/15 12:11:01;;;;;;;2.20;1.25;;;33.20;33.30;;;;;;6098340;29;20087;-83
2022/10/15 12:14:22;;;;;;;1.38;1.10;;;33.70;32.80;;;;;;6097175;29;20327;-84
2022/10/15 12:17:30;;;;;;;3.53;1.25;;;34.00;32.10;;;;;;6092264;29;20063;-83
2022/10/15 12:20:31;;;;;;;3.08;1.70;;;34.50;31.40;;;;;;6090303;29;20131;-83
2022/10/15 12:23:36;;;;;;;2.40;0.85;;;34.80;31.00;;;;;;6092431;29;20036;-83
2022/10/15 12:26:38;;;;;;;5.07;1.25;;;35.20;30.40;;;;;;6098053;29;20361;-83
2022/10/15 12:29:38;;;;;;;14.18;1.40;;;35.40;29.60;;;;;;6094893;29;20056;-83
2022/10/15 12:32:44;;;;;;;3.22;1.20;;;35.30;29.50;;;;;;6108045;29;20040;-83
2022/10/15 12:35:56;;;;;;;2.15;1.30;;;34.80;29.90;;;;;;6084432;29;20033;-84
2022/10/15 12:39:18;;;;;;;3.80;0.90;;;33.90;31.00;;;;;;6092555;29;20039;-83
2022/10/15 12:42:33;;;;;;;2.22;1.10;;;32.90;32.20;;;;;;6090263;29;20100;-83
2022/10/15 12:45:38;;;;;;;3.17;1.25;;;32.00;33.30;;;;;;6098041;29;20032;-83
2022/10/15 12:48:46;;;;;;;2.28;1.17;;;31.20;34.40;;;;;;6097252;29;20119;-82
2022/10/15 12:51:46;;;;;;;3.30;1.02;;;30.50;35.30;;;;;;6092945;29;20036;-83
2022/10/15 12:54:51;;;;;;;2.13;1.00;;;30.00;36.10;;;;;;6102047;29;20135;-83
2022/10/15 12:57:53;;;;;;;1.23;1.10;;;29.50;36.80;;;;;;6082692;29;20069;-82
2022/10/15 13:00:54;;;;;;;2.45;1.17;;;29.20;37.40;;;;;;6102882;29;20104;-82
2022/10/15 13:03:57;;;;;;;1.25;0.82;;;28.80;37.70;;;;;;6107712;29;20131;-82
2022/10/15 13:07:03;;;;;;;1.05;0.73;;;28.50;38.10;;;;;;6109300;29;20588;-83
2022/10/15 13:10:16;;;;;;;3.25;0.90;;;28.30;38.50;;;;;;6086850;29;20373;-83
2022/10/15 13:13:23;;;;;;;1.08;0.90;;;28.10;38.80;;;;;;6089267;29;20047;-82
2022/10/15 13:16:25;;;;;;;1.60;1.05;;;27.90;39.00;;;;;;6101856;29;20052;-82
2022/10/15 13:19:34;;;;;;;3.22;1.45;;;27.80;39.30;;;;;;6100334;29;20056;-83
2022/10/15 13:22:36;;;;;;;0.95;0.68;;;27.70;39.30;;;;;;6109337;29;20080;-83
2022/10/15 13:25:37;;;;;;;2.35;0.50;;;27.60;39.30;;;;;;6126864;29;20047;-81
2022/10/15 13:28:40;;;;;;;1.02;0.77;;;27.60;39.60;;;;;;6108426;29;20051;-85
2022/10/15 13:31:45;;;;;;;1.48;0.60;;;27.50;39.70;;;;;;6086166;29;20040;-83
2022/10/15 13:34:47;;;;;;;1.73;0.82;;;27.40;39.70;;;;;;6111299;29;20032;-82
2022/10/15 13:37:50;;;;;;;1.33;0.70;;;27.40;39.90;;;;;;6115374;29;20044;-84
2022/10/15 13:40:53;;;;;;;10.00;1.08;;;27.40;40.10;;;;;;6113688;29;20036;-83
2022/10/15 13:43:57;;;;;;;3.55;1.00;;;27.30;40.30;;;;;;6111789;29;20382;-83
2022/10/15 13:46:58;;;;;;;2.42;1.02;;;27.30;40.50;;;;;;6120208;29;20040;-83
2022/10/15 13:50:25;;;;;;;4.57;1.30;;;27.20;40.80;;;;;;6099310;29;20056;-83
2022/10/15 13:53:34;;;;;;;2.35;1.42;;;27.10;41.10;;;;;;6104269;29;20054;-83
2022/10/15 13:56:36;;;;;;;3.08;1.80;;;27.10;41.30;;;;;;6082419;29;20488;-82
2022/10/15 13:59:42;;;;;;;1.08;0.98;;;27.10;41.40;;;;;;6099088;29;20086;-82
2022/10/15 14:02:43;;;;;;;4.15;0.93;;;27.10;41.40;;;;;;6097393;29;20598;-82
2022/10/15 14:05:46;;;;;;;1.40;0.65;;;27.00;41.30;;;;;;6104464;29;20044;-82
2022/10/15 14:08:49;;;;;;;1.65;0.73;;;27.00;41.30;;;;;;6081003;29;20044;-83
2022/10/15 14:11:51;;;;;;;1.77;1.38;;;27.00;41.30;;;;;;6085654;29;20048;-83
2022/10/15 14:14:52;;;;;;;7.60;1.42;;;27.00;41.30;;;;;;6083120;29;20036;-83
2022/10/15 14:17:53;;;;;;;0.40;0.40;;;27.00;41.20;;;;;;6089000;29;20044;-83
2022/10/15 14:20:55;;;;;;;2.15;0.50;;;27.00;41.20;;;;;;6113518;29;20071;-83
2022/10/15 14:24:11;;;;;;;5.13;0.55;;;27.00;41.30;;;;;;6100906;29;20040;-83
2022/10/15 14:27:21;;;;;;;2.92;0.63;;;26.80;41.20;;;;;;6101491;29;20036;-83
2022/10/15 14:30:31;;;;;;;0.93;0.60;;;27.10;41.50;;;;;;6107621;29;20435;-82
2022/10/15 14:33:41;;;;;;;0.82;0.45;;;26.90;41.40;;;;;;6109716;29;20032;-82
2022/10/15 14:36:42;;;;;;;0.88;0.50;;;26.90;41.50;;;;;;6096481;29;20480;-82
2022/10/15 14:39:47;;;;;;;5.38;0.70;;;26.90;41.50;;;;;;6084768;29;20075;-85
2022/10/15 14:43:13;;;;;;;2.42;0.80;;;26.90;41.60;;;;;;6114936;29;20047;-84
2022/10/15 14:46:18;;;;;;;2.15;0.60;;;26.80;41.70;;;;;;6094455;29;20087;-82
2022/10/15 14:49:29;;;;;;;0.68;0.60;;;26.90;41.80;;;;;;6085325;29;20411;-84
2022/10/15 14:52:31;;;;;;;4.60;0.73;;;26.90;41.80;;;;;;6101555;29;20040;-81
2022/10/15 14:55:40;;;;;;;2.97;0.55;;;26.80;41.80;;;;;;6096832;29;20347;-83
2022/10/15 14:58:51;;;;;;;3.13;0.90;;;26.80;41.90;;;;;;6097142;29;20042;-83
2022/10/15 15:01:54;;;;;;;2.50;0.85;;;26.80;41.90;;;;;;6083990;29;20053;-83
2022/10/15 15:05:23;;;;;;;3.03;0.47;;;26.80;42.00;;;;;;6077447;29;20393;-81
2022/10/15 15:08:24;;;;;;;5.82;0.80;;;26.80;42.00;;;;;;6085167;29;20048;-82
2022/10/15 15:11:25;;;;;;;2.05;0.60;;;26.80;42.00;;;;;;6098327;29;20054;-82
2022/10/15 15:14:27;;;;;;;6.72;0.85;;;26.90;42.10;;;;;;6104509;29;20103;-82
2022/10/15 15:17:29;;;;;;;0.98;0.52;;;26.80;42.10;;;;;;6108871;29;20052;-83
2022/10/15 15:20:30;;;;;;;2.72;0.93;;;26.70;42.10;;;;;;6110761;29;20111;-83
2022/10/15 15:23:33;;;;;;;3.97;0.80;;;26.70;42.20;;;;;;6108264;29;20040;-84
2022/10/15 15:26:33;;;;;;;1.33;0.50;;;26.70;42.30;;;;;;6082669;29;20044;-82
2022/10/15 15:29:34;;;;;;;4.72;0.80;;;26.70;42.30;;;;;;6096959;29;20056;-82
2022/10/15 15:32:35;;;;;;;2.78;1.13;;;26.70;42.40;;;;;;6114428;29;20358;-83
2022/10/15 15:35:49;;;;;;;1.90;1.15;;;26.60;42.40;;;;;;6096744;29;20089;-82
2022/10/15 15:38:50;;;;;;;1.20;0.68;;;26.60;42.60;;;;;;6099156;29;20087;-83
2022/10/15 15:41:51;;;;;;;2.50;1.05;;;26.60;42.60;;;;;;6092229;29;20139;-85
2022/10/15 15:44:52;;;;;;;1.40;0.77;;;26.60;42.70;;;;;;6098316;29;20044;-84
2022/10/15 15:48:00;;;;;;;1.05;0.65;;;26.50;42.70;;;;;;6082942;29;20118;-82
2022/10/15 15:51:09;;;;;;;2.03;0.90;;;26.40;42.70;;;;;;6091434;29;20048;-82
2022/10/15 15:54:10;;;;;;;2.92;0.85;;;26.50;42.90;;;;;;6094483;29;20044;-82
2022/10/15 15:57:11;;;;;;;0.82;0.70;;;26.50;43.00;;;;;;6093888;29;20032;-81
2022/10/15 16:00:14;;;;;;;1.70;0.90;;;26.40;43.10;;;;;;6108903;29;20072;-81
2022/10/15 16:03:18;;;;;;;3.15;1.20;;;26.40;43.10;;;;;;6095869;29;20377;-81
2022/10/15 16:06:20;;;;;;;5.63;1.10;;;26.40;43.20;;;;;;6096910;29;20036;-82
2022/10/15 16:09:22;;;;;;;4.40;1.15;;;26.30;43.30;;;;;;6094646;29;20139;-80
2022/10/15 16:12:23;;;;;;;6.65;1.27;;;26.30;43.40;;;;;;6097016;29;20044;-80